createdAt,value
2018-11-11T00:00:17.350Z,11.79
2018-11-11T00:01:17.341Z,11.88
2018-11-11T00:02:17.327Z,11.78
2018-11-11T00:03:17.330Z,11.85
2018-11-11T00:04:17.304Z,11.95
2018-11-11T00:05:17.294Z,11.83
2018-11-11T00:06:17.282Z,11.82
2018-11-11T00:07:17.272Z,11.96
2018-11-11T00:08:17.285Z,11.98
2018-11-11T00:09:17.257Z,11.99
2018-11-11T00:10:17.239Z,11.99
2018-11-11T00:11:17.228Z,11.96
2018-11-11T00:12:17.219Z,11.96
2018-11-11T00:13:17.211Z,12.02
2018-11-11T00:14:17.214Z,11.99
2018-11-11T00:15:17.203Z,12.02
2018-11-11T00:16:17.173Z,12.04
2018-11-11T00:17:17.163Z,12.04
2018-11-11T00:18:17.151Z,12.04
2018-11-11T00:19:17.151Z,12.01
2018-11-11T00:20:17.129Z,12.07
2018-11-11T00:21:17.119Z,11.99
2018-11-11T00:22:17.113Z,12.09
2018-11-11T00:23:17.095Z,12.12
2018-11-11T00:24:17.098Z,12.12
2018-11-11T00:25:17.095Z,12.07
2018-11-11T00:26:17.069Z,12.07
2018-11-11T00:27:17.059Z,12.07
2018-11-11T00:28:17.042Z,12.19
2018-11-11T00:29:17.042Z,12.20
2018-11-11T00:30:17.025Z,12.16
2018-11-11T00:31:17.011Z,12.17
2018-11-11T00:32:17.009Z,12.16
2018-11-11T00:33:16.998Z,12.14
2018-11-11T00:34:16.987Z,12.14
2018-11-11T00:35:16.968Z,12.16
2018-11-11T00:36:16.959Z,12.01
2018-11-11T00:37:16.946Z,12.10
2018-11-11T00:38:16.932Z,12.04
2018-11-11T00:39:16.975Z,12.01
2018-11-11T00:40:16.971Z,11.98
2018-11-11T00:41:17.874Z,11.98
2018-11-11T00:42:16.900Z,11.98
2018-11-11T00:43:16.902Z,12.01
2018-11-11T00:44:16.901Z,11.98
2018-11-11T00:45:16.857Z,11.91
2018-11-11T00:46:16.846Z,11.95
2018-11-11T00:47:16.835Z,11.99
2018-11-11T00:48:16.835Z,12.01
2018-11-11T00:49:16.823Z,11.99
2018-11-11T00:50:16.808Z,11.96
2018-11-11T00:51:16.794Z,11.99
2018-11-11T00:52:16.780Z,12.01
2018-11-11T00:53:16.769Z,12.04
2018-11-11T00:54:16.771Z,11.96
2018-11-11T00:55:16.750Z,11.94
2018-11-11T00:56:16.749Z,11.96
2018-11-11T00:57:16.725Z,11.85
2018-11-11T00:58:16.760Z,11.96
2018-11-11T00:59:16.721Z,11.95
2018-11-11T01:00:16.703Z,11.96
2018-11-11T01:01:16.691Z,11.85
2018-11-11T01:02:16.681Z,11.79
2018-11-11T01:03:16.661Z,11.95
2018-11-11T01:04:16.666Z,11.91
2018-11-11T01:05:16.638Z,11.91
2018-11-11T01:06:16.635Z,11.94
2018-11-11T01:07:16.623Z,11.95
2018-11-11T01:08:16.606Z,11.96
2018-11-11T01:09:16.594Z,11.95
2018-11-11T01:10:16.599Z,11.99
2018-11-11T01:11:16.578Z,11.99
2018-11-11T01:12:16.612Z,11.96
2018-11-11T01:13:16.555Z,11.82
2018-11-11T01:14:16.543Z,11.86
2018-11-11T01:15:16.538Z,11.76
2018-11-11T01:16:16.520Z,11.82
2018-11-11T01:17:16.508Z,11.76
2018-11-11T01:18:16.498Z,11.80
2018-11-11T01:19:16.485Z,11.72
2018-11-11T01:20:16.485Z,11.73
2018-11-11T01:21:16.465Z,11.80
2018-11-11T01:22:16.466Z,11.76
2018-11-11T01:23:16.458Z,11.80
2018-11-11T01:24:16.432Z,11.70
2018-11-11T01:25:16.433Z,11.70
2018-11-11T01:26:16.410Z,11.75
2018-11-11T01:27:16.397Z,11.75
2018-11-11T01:28:16.392Z,11.75
2018-11-11T01:29:16.377Z,11.70
2018-11-11T01:30:16.377Z,11.76
2018-11-11T01:31:16.368Z,11.79
2018-11-11T01:32:16.343Z,11.80
2018-11-11T01:33:16.334Z,11.73
2018-11-11T01:34:16.324Z,11.76
2018-11-11T01:35:16.327Z,11.75
2018-11-11T01:36:16.303Z,11.78
2018-11-11T01:37:16.290Z,11.76
2018-11-11T01:38:16.277Z,11.79
2018-11-11T01:39:16.269Z,11.80
2018-11-11T01:40:16.274Z,11.78
2018-11-11T01:41:16.244Z,11.78
2018-11-11T01:42:16.235Z,11.75
2018-11-11T01:43:16.223Z,11.78
2018-11-11T01:44:16.213Z,11.73
2018-11-11T01:45:16.214Z,11.82
2018-11-11T01:46:16.190Z,11.90
2018-11-11T01:47:16.179Z,11.82
2018-11-11T01:48:16.168Z,11.88
2018-11-11T01:49:16.193Z,11.86
2018-11-11T01:50:16.157Z,11.80
2018-11-11T01:51:16.135Z,11.79
2018-11-11T01:52:16.124Z,11.83
2018-11-11T01:53:16.114Z,11.86
2018-11-11T01:54:16.101Z,11.88
2018-11-11T01:55:16.115Z,11.83
2018-11-11T01:56:16.088Z,11.83
2018-11-11T01:57:16.074Z,11.94
2018-11-11T01:58:16.058Z,11.95
2018-11-11T01:59:16.052Z,11.94
2018-11-11T02:00:16.046Z,11.98
2018-11-11T02:01:16.050Z,11.82
2018-11-11T02:02:16.015Z,11.98
2018-11-11T02:03:16.005Z,11.99
2018-11-11T02:04:16.000Z,11.99
2018-11-11T02:05:15.989Z,12.04
2018-11-11T02:06:15.978Z,11.98
2018-11-11T02:07:15.962Z,12.02
2018-11-11T02:08:15.949Z,12.01
2018-11-11T02:09:15.936Z,11.98
2018-11-11T02:10:15.925Z,12.05
2018-11-11T02:11:15.923Z,11.95
2018-11-11T02:12:15.916Z,11.99
2018-11-11T02:13:15.891Z,11.98
2018-11-11T02:14:15.888Z,11.99
2018-11-11T02:15:15.867Z,11.98
2018-11-11T02:16:15.869Z,11.99
2018-11-11T02:17:15.847Z,11.99
2018-11-11T02:18:15.851Z,11.99
2018-11-11T02:19:15.827Z,12.01
2018-11-11T02:20:15.819Z,12.01
2018-11-11T02:21:15.878Z,11.99
2018-11-11T02:22:15.799Z,12.12
2018-11-11T02:23:15.784Z,11.98
2018-11-11T02:24:15.768Z,11.98
2018-11-11T02:25:15.768Z,11.96
2018-11-11T02:26:15.757Z,11.99
2018-11-11T02:27:15.737Z,11.98
2018-11-11T02:28:15.727Z,12.01
2018-11-11T02:29:15.720Z,12.01
2018-11-11T02:30:15.719Z,11.96
2018-11-11T02:31:15.706Z,12.02
2018-11-11T02:32:15.682Z,11.96
2018-11-11T02:33:15.669Z,11.99
2018-11-11T02:34:15.663Z,11.95
2018-11-11T02:35:15.656Z,11.94
2018-11-11T02:36:15.662Z,11.82
2018-11-11T02:37:15.683Z,11.96
2018-11-11T02:38:15.614Z,11.95
2018-11-11T02:39:15.602Z,11.83
2018-11-11T02:40:15.595Z,11.78
2018-11-11T02:41:15.590Z,11.82
2018-11-11T02:42:15.574Z,11.80
2018-11-11T02:43:15.561Z,11.95
2018-11-11T02:44:15.547Z,11.90
2018-11-11T02:45:15.537Z,11.88
2018-11-11T02:46:15.559Z,11.85
2018-11-11T02:47:15.513Z,11.91
2018-11-11T02:48:15.502Z,11.86
2018-11-11T02:49:15.490Z,11.85
2018-11-11T02:50:15.486Z,11.86
2018-11-11T02:51:15.471Z,11.88
2018-11-11T02:52:15.489Z,11.80
2018-11-11T02:53:15.451Z,11.82
2018-11-11T02:54:15.436Z,11.86
2018-11-11T02:55:15.426Z,11.83
2018-11-11T02:56:15.415Z,11.88
2018-11-11T02:57:15.417Z,11.80
2018-11-11T02:58:15.399Z,11.82
2018-11-11T02:59:15.433Z,11.85
2018-11-11T03:00:15.371Z,11.76
2018-11-11T03:01:15.360Z,11.79
2018-11-11T03:02:15.359Z,11.80
2018-11-11T03:03:15.336Z,11.78
2018-11-11T03:04:15.405Z,11.80
2018-11-11T03:05:15.317Z,11.65
2018-11-11T03:06:15.303Z,11.80
2018-11-11T03:07:15.300Z,11.69
2018-11-11T03:08:15.280Z,11.73
2018-11-11T03:09:15.268Z,11.70
2018-11-11T03:10:15.298Z,11.70
2018-11-11T03:11:15.250Z,11.65
2018-11-11T03:12:15.246Z,11.73
2018-11-11T03:13:15.232Z,11.72
2018-11-11T03:14:15.213Z,11.75
2018-11-11T03:15:15.207Z,11.79
2018-11-11T03:16:15.194Z,11.73
2018-11-11T03:17:15.220Z,11.62
2018-11-11T03:18:15.202Z,11.64
2018-11-11T03:19:15.235Z,11.69
2018-11-11T03:20:15.149Z,11.65
2018-11-11T03:21:15.245Z,11.58
2018-11-11T03:22:15.206Z,11.61
2018-11-11T03:23:15.155Z,11.61
2018-11-11T03:24:15.104Z,11.64
2018-11-11T03:25:15.090Z,11.64
2018-11-11T03:26:15.087Z,11.64
2018-11-11T03:27:15.078Z,11.57
2018-11-11T03:28:15.057Z,11.61
2018-11-11T03:29:15.046Z,11.67
2018-11-11T03:30:15.042Z,11.57
2018-11-11T03:31:15.028Z,11.62
2018-11-11T03:32:15.031Z,11.61
2018-11-11T03:33:15.002Z,11.52
2018-11-11T03:34:14.989Z,11.62
2018-11-11T03:35:14.978Z,11.55
2018-11-11T03:36:14.971Z,11.54
2018-11-11T03:37:14.976Z,11.47
2018-11-11T03:38:14.951Z,11.42
2018-11-11T03:39:14.954Z,11.46
2018-11-11T03:40:14.929Z,11.47
2018-11-11T03:41:14.915Z,11.44
2018-11-11T03:42:14.919Z,11.47
2018-11-11T03:43:14.891Z,11.40
2018-11-11T03:44:14.890Z,11.42
2018-11-11T03:45:14.869Z,11.44
2018-11-11T03:46:14.863Z,11.43
2018-11-11T03:47:14.860Z,11.46
2018-11-11T03:48:14.836Z,11.40
2018-11-11T03:49:14.824Z,11.40
2018-11-11T03:50:14.811Z,11.42
2018-11-11T03:51:14.802Z,11.36
2018-11-11T03:52:14.801Z,11.39
2018-11-11T03:53:14.779Z,11.35
2018-11-11T03:54:14.787Z,11.39
2018-11-11T03:55:14.771Z,11.37
2018-11-11T03:56:14.748Z,11.40
2018-11-11T03:57:14.749Z,11.35
2018-11-11T03:58:14.722Z,11.42
2018-11-11T03:59:14.715Z,11.35
2018-11-11T04:00:14.706Z,11.37
2018-11-11T04:01:14.695Z,11.42
2018-11-11T04:02:14.691Z,11.40
2018-11-11T04:03:14.666Z,11.42
2018-11-11T04:04:14.672Z,11.39
2018-11-11T04:05:14.649Z,11.47
2018-11-11T04:06:14.634Z,11.40
2018-11-11T04:07:14.635Z,11.47
2018-11-11T04:08:14.614Z,11.39
2018-11-11T04:09:14.602Z,11.42
2018-11-11T04:10:14.684Z,11.44
2018-11-11T04:11:14.580Z,11.36
2018-11-11T04:12:14.582Z,11.43
2018-11-11T04:13:14.553Z,11.39
2018-11-11T04:14:14.554Z,11.39
2018-11-11T04:15:14.566Z,11.39
2018-11-11T04:16:14.524Z,11.42
2018-11-11T04:17:14.528Z,11.47
2018-11-11T04:18:14.498Z,11.44
2018-11-11T04:19:14.487Z,11.46
2018-11-11T04:20:14.481Z,11.40
2018-11-11T04:21:14.478Z,11.36
2018-11-11T04:22:14.466Z,11.49
2018-11-11T04:23:14.443Z,11.43
2018-11-11T04:24:14.474Z,11.46
2018-11-11T04:25:14.439Z,11.42
2018-11-11T04:26:14.410Z,11.42
2018-11-11T04:27:14.409Z,11.43
2018-11-11T04:28:14.387Z,11.43
2018-11-11T04:29:14.376Z,11.40
2018-11-11T04:30:14.375Z,11.43
2018-11-11T04:31:14.353Z,11.42
2018-11-11T04:32:14.365Z,11.49
2018-11-11T04:33:14.332Z,11.42
2018-11-11T04:34:14.323Z,11.43
2018-11-11T04:35:14.308Z,11.54
2018-11-11T04:36:14.296Z,11.49
2018-11-11T04:37:14.286Z,11.44
2018-11-11T04:38:14.290Z,11.46
2018-11-11T04:39:14.340Z,11.37
2018-11-11T04:40:14.257Z,11.43
2018-11-11T04:41:14.242Z,11.49
2018-11-11T04:42:14.238Z,11.46
2018-11-11T04:43:14.231Z,11.49
2018-11-11T04:44:14.205Z,11.36
2018-11-11T04:45:14.199Z,11.42
2018-11-11T04:46:14.247Z,11.42
2018-11-11T04:47:14.177Z,11.42
2018-11-11T04:48:14.177Z,11.39
2018-11-11T04:49:14.162Z,11.39
2018-11-11T04:50:14.146Z,11.36
2018-11-11T04:51:14.130Z,11.43
2018-11-11T04:52:14.118Z,11.42
2018-11-11T04:53:14.121Z,11.36
2018-11-11T04:54:14.096Z,11.42
2018-11-11T04:55:14.098Z,11.44
2018-11-11T04:56:14.079Z,11.36
2018-11-11T04:57:14.067Z,11.35
2018-11-11T04:58:14.063Z,11.35
2018-11-11T04:59:14.039Z,11.36
2018-11-11T05:00:14.031Z,11.36
2018-11-11T05:01:14.076Z,11.35
2018-11-11T05:02:14.016Z,11.40
2018-11-11T05:03:14.021Z,11.37
2018-11-11T05:04:13.987Z,11.39
2018-11-11T05:05:13.976Z,11.36
2018-11-11T05:06:13.961Z,11.36
2018-11-11T05:07:13.966Z,11.40
2018-11-11T05:08:13.952Z,11.40
2018-11-11T05:09:13.941Z,11.40
2018-11-11T05:10:13.932Z,11.36
2018-11-11T05:11:13.906Z,11.40
2018-11-11T05:12:13.898Z,11.43
2018-11-11T05:13:13.886Z,11.37
2018-11-11T05:14:13.899Z,11.42
2018-11-11T05:15:13.861Z,11.42
2018-11-11T05:16:13.859Z,11.42
2018-11-11T05:17:13.841Z,11.36
2018-11-11T05:18:13.832Z,11.40
2018-11-11T05:19:13.832Z,11.43
2018-11-11T05:20:13.817Z,11.43
2018-11-11T05:21:13.796Z,11.44
2018-11-11T05:22:13.791Z,11.36
2018-11-11T05:23:13.774Z,11.49
2018-11-11T05:24:13.775Z,11.49
2018-11-11T05:25:13.754Z,11.47
2018-11-11T05:26:13.741Z,11.49
2018-11-11T05:27:13.731Z,11.49
2018-11-11T05:28:13.724Z,11.46
2018-11-11T05:29:13.724Z,11.46
2018-11-11T05:30:13.697Z,11.43
2018-11-11T05:31:13.685Z,11.47
2018-11-11T05:32:13.676Z,11.47
2018-11-11T05:33:13.664Z,11.44
2018-11-11T05:34:13.668Z,11.43
2018-11-11T05:35:13.645Z,11.49
2018-11-11T05:36:13.688Z,11.47
2018-11-11T05:37:13.624Z,11.52
2018-11-11T05:38:13.609Z,11.51
2018-11-11T05:39:13.606Z,11.49
2018-11-11T05:40:13.586Z,11.58
2018-11-11T05:41:13.574Z,11.47
2018-11-11T05:42:13.570Z,11.55
2018-11-11T05:43:13.553Z,11.55
2018-11-11T05:44:13.554Z,11.47
2018-11-11T05:45:13.537Z,11.44
2018-11-11T05:46:13.518Z,11.51
2018-11-11T05:47:13.510Z,11.51
2018-11-11T05:48:13.495Z,11.43
2018-11-11T05:49:13.500Z,11.43
2018-11-11T05:50:13.478Z,11.42
2018-11-11T05:51:13.461Z,11.43
2018-11-11T05:52:13.458Z,11.47
2018-11-11T05:53:13.440Z,11.39
2018-11-11T05:54:13.440Z,11.47
2018-11-11T05:55:13.422Z,11.42
2018-11-11T05:56:13.406Z,11.42
2018-11-11T05:57:13.404Z,11.39
2018-11-11T05:58:13.387Z,11.43
2018-11-11T05:59:13.386Z,11.35
2018-11-11T06:00:13.379Z,11.36
2018-11-11T06:01:13.378Z,11.29
2018-11-11T06:02:13.388Z,11.27
2018-11-11T06:03:13.379Z,11.33
2018-11-11T06:04:13.343Z,11.27
2018-11-11T06:05:13.367Z,11.27
2018-11-11T06:06:13.296Z,11.24
2018-11-11T06:07:13.285Z,11.24
2018-11-11T06:08:13.282Z,11.24
2018-11-11T06:09:13.273Z,11.24
2018-11-11T06:10:13.252Z,11.25
2018-11-11T06:11:13.244Z,11.21
2018-11-11T06:12:13.227Z,11.19
2018-11-11T06:13:13.219Z,11.19
2018-11-11T06:14:13.220Z,11.17
2018-11-11T06:15:13.198Z,11.21
2018-11-11T06:16:13.184Z,11.24
2018-11-11T06:17:13.173Z,11.17
2018-11-11T06:18:13.161Z,11.29
2018-11-11T06:19:13.172Z,11.24
2018-11-11T06:20:13.143Z,11.21
2018-11-11T06:21:13.129Z,11.19
2018-11-11T06:22:13.116Z,11.21
2018-11-11T06:23:13.110Z,11.22
2018-11-11T06:24:13.114Z,11.15
2018-11-11T06:25:13.101Z,11.21
2018-11-11T06:26:13.092Z,11.22
2018-11-11T06:27:13.080Z,11.27
2018-11-11T06:28:13.056Z,11.21
2018-11-11T06:29:13.055Z,11.22
2018-11-11T06:30:13.055Z,11.06
2018-11-11T06:31:13.040Z,11.06
2018-11-11T06:32:13.079Z,11.14
2018-11-11T06:33:12.995Z,11.07
2018-11-11T06:34:13.098Z,11.04
2018-11-11T06:35:12.991Z,11.11
2018-11-11T06:36:12.965Z,11.06
2018-11-11T06:37:12.963Z,11.00
2018-11-11T06:38:12.955Z,11.00
2018-11-11T06:39:12.930Z,10.99
2018-11-11T06:40:12.930Z,11.03
2018-11-11T06:41:12.908Z,10.89
2018-11-11T06:42:12.902Z,11.00
2018-11-11T06:43:12.885Z,11.03
2018-11-11T06:44:12.871Z,11.03
2018-11-11T06:45:12.871Z,11.02
2018-11-11T06:46:12.854Z,10.97
2018-11-11T06:47:12.842Z,11.03
2018-11-11T06:48:12.893Z,11.00
2018-11-11T06:49:12.816Z,10.94
2018-11-11T06:50:12.819Z,10.99
2018-11-11T06:51:12.794Z,10.96
2018-11-11T06:52:12.783Z,11.02
2018-11-11T06:53:12.771Z,10.99
2018-11-11T06:54:12.778Z,11.00
2018-11-11T06:55:12.769Z,10.94
2018-11-11T06:56:12.738Z,11.02
2018-11-11T06:57:12.726Z,10.97
2018-11-11T06:58:12.814Z,10.86
2018-11-11T06:59:12.706Z,10.92
2018-11-11T07:00:12.711Z,10.94
2018-11-11T07:01:12.682Z,10.89
2018-11-11T07:02:12.672Z,10.91
2018-11-11T07:03:12.660Z,11.00
2018-11-11T07:04:12.649Z,11.03
2018-11-11T07:05:12.660Z,10.96
2018-11-11T07:06:12.629Z,10.94
2018-11-11T07:07:12.615Z,10.97
2018-11-11T07:08:12.606Z,10.96
2018-11-11T07:09:12.595Z,10.96
2018-11-11T07:10:12.599Z,10.94
2018-11-11T07:11:12.579Z,10.96
2018-11-11T07:12:12.564Z,10.96
2018-11-11T07:13:12.548Z,10.91
2018-11-11T07:14:12.749Z,10.96
2018-11-11T07:15:12.544Z,11.02
2018-11-11T07:16:12.527Z,10.96
2018-11-11T07:17:12.513Z,10.99
2018-11-11T07:18:12.492Z,11.04
2018-11-11T07:19:12.482Z,11.03
2018-11-11T07:20:12.470Z,10.94
2018-11-11T07:21:12.481Z,11.04
2018-11-11T07:22:12.450Z,11.02
2018-11-11T07:23:12.456Z,11.06
2018-11-11T07:24:12.511Z,11.02
2018-11-11T07:25:12.414Z,11.09
2018-11-11T07:26:12.413Z,11.09
2018-11-11T07:27:12.393Z,11.11
2018-11-11T07:28:12.385Z,11.10
2018-11-11T07:29:12.386Z,11.03
2018-11-11T07:30:12.359Z,11.02
2018-11-11T07:31:12.358Z,11.06
2018-11-11T07:32:12.338Z,11.11
2018-11-11T07:33:12.351Z,11.11
2018-11-11T07:34:12.320Z,11.11
2018-11-11T07:35:12.304Z,11.14
2018-11-11T07:36:12.595Z,11.10
2018-11-11T07:37:12.282Z,11.11
2018-11-11T07:38:12.278Z,11.18
2018-11-11T07:39:12.264Z,11.22
2018-11-11T07:40:12.249Z,11.11
2018-11-11T07:41:12.257Z,11.10
2018-11-11T07:42:12.259Z,11.15
2018-11-11T07:43:12.213Z,11.10
2018-11-11T07:44:12.206Z,11.09
2018-11-11T07:45:12.254Z,11.11
2018-11-11T07:46:12.194Z,11.14
2018-11-11T07:47:12.170Z,11.11
2018-11-11T07:48:12.157Z,11.18
2018-11-11T07:49:12.147Z,11.19
2018-11-11T07:50:12.135Z,11.22
2018-11-11T07:51:12.134Z,11.24
2018-11-11T07:52:12.157Z,11.27
2018-11-11T07:53:12.103Z,11.27
2018-11-11T07:54:12.096Z,11.27
2018-11-11T07:55:12.212Z,11.22
2018-11-11T07:56:12.090Z,11.24
2018-11-11T07:57:12.057Z,11.24
2018-11-11T07:58:12.071Z,11.22
2018-11-11T07:59:12.034Z,11.28
2018-11-11T08:00:12.025Z,11.21
2018-11-11T08:01:12.023Z,11.27
2018-11-11T08:02:12.086Z,11.35
2018-11-11T08:03:11.993Z,11.32
2018-11-11T08:04:11.980Z,11.37
2018-11-11T08:05:11.969Z,11.36
2018-11-11T08:06:11.974Z,11.35
2018-11-11T08:07:11.957Z,11.39
2018-11-11T08:08:11.934Z,11.36
2018-11-11T08:09:11.937Z,11.40
2018-11-11T08:10:11.912Z,11.44
2018-11-11T08:11:11.981Z,11.46
2018-11-11T08:12:11.903Z,11.47
2018-11-11T08:13:11.878Z,11.60
2018-11-11T08:14:11.869Z,11.51
2018-11-11T08:15:11.860Z,11.61
2018-11-11T08:16:11.846Z,11.65
2018-11-11T08:17:11.849Z,11.73
2018-11-11T08:18:11.831Z,11.72
2018-11-11T08:19:11.817Z,11.75
2018-11-11T08:20:11.804Z,11.62
2018-11-11T08:21:11.788Z,11.69
2018-11-11T08:22:11.794Z,11.76
2018-11-11T08:23:11.768Z,11.76
2018-11-11T08:24:11.759Z,11.72
2018-11-11T08:25:11.802Z,11.70
2018-11-11T08:26:11.736Z,11.78
2018-11-11T08:27:11.744Z,11.70
2018-11-11T08:28:11.717Z,11.67
2018-11-11T08:29:11.707Z,11.72
2018-11-11T08:30:11.691Z,11.67
2018-11-11T08:31:11.681Z,11.72
2018-11-11T08:32:11.722Z,11.76
2018-11-11T08:33:11.660Z,11.65
2018-11-11T08:34:11.648Z,11.76
2018-11-11T08:35:11.636Z,11.75
2018-11-11T08:36:11.644Z,11.78
2018-11-11T08:37:11.626Z,11.78
2018-11-11T08:38:11.614Z,11.80
2018-11-11T08:39:11.592Z,11.82
2018-11-11T08:40:11.582Z,11.85
2018-11-11T08:41:11.569Z,11.88
2018-11-11T08:42:11.588Z,11.95
2018-11-11T08:43:11.551Z,11.94
2018-11-11T08:44:11.565Z,11.96
2018-11-11T08:45:11.531Z,11.95
2018-11-11T08:46:11.554Z,12.02
2018-11-11T08:47:11.517Z,12.04
2018-11-11T08:48:11.517Z,12.10
2018-11-11T08:49:11.498Z,12.05
2018-11-11T08:50:11.497Z,12.21
2018-11-11T08:51:11.466Z,12.21
2018-11-11T08:52:11.461Z,12.21
2018-11-11T08:53:11.442Z,12.32
2018-11-11T08:54:11.427Z,12.35
2018-11-11T08:55:11.422Z,12.49
2018-11-11T08:56:11.409Z,12.56
2018-11-11T08:57:11.411Z,12.71
2018-11-11T08:58:11.513Z,13.04
2018-11-11T08:59:11.371Z,13.19
2018-11-11T09:00:11.362Z,13.30
2018-11-11T09:01:11.353Z,13.51
2018-11-11T09:02:11.339Z,13.81
2018-11-11T09:03:11.345Z,13.66
2018-11-11T09:04:11.317Z,13.49
2018-11-11T09:05:11.306Z,13.67
2018-11-11T09:06:11.294Z,14.00
2018-11-11T09:07:11.286Z,14.20
2018-11-11T09:08:11.294Z,14.47
2018-11-11T09:09:11.262Z,14.55
2018-11-11T09:10:11.258Z,14.46
2018-11-11T09:11:11.248Z,14.45
2018-11-11T09:12:11.227Z,14.47
2018-11-11T09:13:11.230Z,14.21
2018-11-11T09:14:11.208Z,14.03
2018-11-11T09:15:11.192Z,13.95
2018-11-11T09:16:11.183Z,13.66
2018-11-11T09:17:11.211Z,13.59
2018-11-11T09:18:11.169Z,13.46
2018-11-11T09:19:11.160Z,13.48
2018-11-11T09:20:11.138Z,13.49
2018-11-11T09:21:11.132Z,13.55
2018-11-11T09:22:11.114Z,13.52
2018-11-11T09:23:11.115Z,13.51
2018-11-11T09:24:11.178Z,13.96
2018-11-11T09:25:11.085Z,14.29
2018-11-11T09:26:11.079Z,14.42
2018-11-11T09:27:11.075Z,14.35
2018-11-11T09:28:11.060Z,14.18
2018-11-11T09:29:11.036Z,13.75
2018-11-11T09:30:11.063Z,13.95
2018-11-11T09:31:11.018Z,14.35
2018-11-11T09:32:11.015Z,14.52
2018-11-11T09:33:11.078Z,14.57
2018-11-11T09:34:10.984Z,14.69
2018-11-11T09:35:11.005Z,14.75
2018-11-11T09:36:10.965Z,14.81
2018-11-11T09:37:10.951Z,14.60
2018-11-11T09:38:10.947Z,15.13
2018-11-11T09:39:10.994Z,15.25
2018-11-11T09:40:10.934Z,15.49
2018-11-11T09:41:10.918Z,15.10
2018-11-11T09:42:10.899Z,14.69
2018-11-11T09:43:10.892Z,14.35
2018-11-11T09:44:10.875Z,14.12
2018-11-11T09:45:10.859Z,14.10
2018-11-11T09:46:10.850Z,14.04
2018-11-11T09:47:10.859Z,13.97
2018-11-11T09:48:10.849Z,13.95
2018-11-11T09:49:10.870Z,14.00
2018-11-11T09:50:10.900Z,14.00
2018-11-11T09:51:10.794Z,13.97
2018-11-11T09:52:10.786Z,14.02
2018-11-11T09:55:28.430Z,14.06
2018-11-11T09:56:28.520Z,14.15
2018-11-11T09:57:28.180Z,14.47
2018-11-11T09:58:28.247Z,14.39
2018-11-11T09:59:28.156Z,14.33
2018-11-11T10:00:28.155Z,14.46
2018-11-11T10:01:28.135Z,14.57
2018-11-11T10:04:17.594Z,14.78
2018-11-11T10:04:36.842Z,14.68
2018-11-11T10:05:36.836Z,14.72
2018-11-11T10:06:36.918Z,14.73
2018-11-11T10:07:36.804Z,14.84
2018-11-11T10:08:36.796Z,14.77
2018-11-11T10:09:36.794Z,14.77
2018-11-11T10:10:36.771Z,14.69
2018-11-11T10:11:36.764Z,14.51
2018-11-11T10:12:36.870Z,14.60
2018-11-11T10:13:36.739Z,14.64
2018-11-11T10:14:36.747Z,14.55
2018-11-11T10:15:36.723Z,14.65
2018-11-11T10:16:36.709Z,14.75
2018-11-11T10:17:36.697Z,14.61
2018-11-11T10:18:36.685Z,14.64
2018-11-11T10:19:36.689Z,14.60
2018-11-11T10:20:36.705Z,14.64
2018-11-11T10:21:36.655Z,14.60
2018-11-11T10:22:36.641Z,14.65
2018-11-11T10:23:36.631Z,14.62
2018-11-11T10:24:36.626Z,14.62
2018-11-11T10:25:36.605Z,14.69
2018-11-11T10:26:36.595Z,14.64
2018-11-11T10:27:36.585Z,14.65
2018-11-11T10:28:36.583Z,14.65
2018-11-11T10:29:36.580Z,14.69
2018-11-11T10:30:36.549Z,14.69
2018-11-11T10:31:36.543Z,14.68
2018-11-11T10:32:36.531Z,14.77
2018-11-11T10:33:36.549Z,14.73
2018-11-11T10:34:36.516Z,14.77
2018-11-11T10:35:36.496Z,14.70
2018-11-11T10:36:36.484Z,14.80
2018-11-11T10:37:36.583Z,14.78
2018-11-11T10:40:20.963Z,14.77
2018-11-11T10:40:44.679Z,14.83
2018-11-11T10:41:44.660Z,14.81
2018-11-11T10:42:44.646Z,14.81
2018-11-11T10:43:44.635Z,14.99
2018-11-11T10:44:44.665Z,14.96
2018-11-11T10:45:44.620Z,15.02
2018-11-11T10:46:44.609Z,15.10
2018-11-11T10:47:44.593Z,15.13
2018-11-11T10:48:44.583Z,15.02
2018-11-11T10:49:44.595Z,14.99
2018-11-11T10:50:44.558Z,15.10
2018-11-11T10:51:44.554Z,15.14
2018-11-11T10:52:44.534Z,15.10
2018-11-11T10:53:44.525Z,15.20
2018-11-11T10:54:44.519Z,15.14
2018-11-11T10:55:44.511Z,15.25
2018-11-11T10:56:44.492Z,15.32
2018-11-11T10:57:44.489Z,15.28
2018-11-11T10:58:44.466Z,15.31
2018-11-11T10:59:44.458Z,15.31
2018-11-11T11:00:44.453Z,15.34
2018-11-11T11:01:44.437Z,15.38
2018-11-11T11:02:44.422Z,15.32
2018-11-11T11:03:44.432Z,15.34
2018-11-11T11:04:44.400Z,15.39
2018-11-11T11:05:44.402Z,15.32
2018-11-11T11:06:44.382Z,15.34
2018-11-11T11:07:44.364Z,15.36
2018-11-11T11:08:44.363Z,15.43
2018-11-11T11:09:44.345Z,15.44
2018-11-11T11:10:44.341Z,15.51
2018-11-11T11:11:44.318Z,15.49
2018-11-11T11:12:44.315Z,15.50
2018-11-11T11:13:44.385Z,15.53
2018-11-11T11:14:44.295Z,15.59
2018-11-11T11:15:44.302Z,15.56
2018-11-11T11:16:44.265Z,15.62
2018-11-11T11:17:44.259Z,15.59
2018-11-11T11:18:44.242Z,15.57
2018-11-11T11:19:44.228Z,15.71
2018-11-11T11:20:44.229Z,15.75
2018-11-11T11:21:44.230Z,15.76
2018-11-11T11:22:44.206Z,15.78
2018-11-11T11:23:44.209Z,15.75
2018-11-11T11:24:44.926Z,15.74
2018-11-11T11:25:44.304Z,15.72
2018-11-11T11:26:44.219Z,15.74
2018-11-11T11:27:44.927Z,15.76
2018-11-11T11:28:44.132Z,15.72
2018-11-11T11:29:44.124Z,15.76
2018-11-11T11:30:44.125Z,15.86
2018-11-11T11:31:44.239Z,15.72
2018-11-11T11:32:44.081Z,15.82
2018-11-11T11:33:44.069Z,15.76
2018-11-11T11:34:44.057Z,15.90
2018-11-11T11:35:44.135Z,15.87
2018-11-11T11:36:44.038Z,15.94
2018-11-11T11:37:44.024Z,15.89
2018-11-11T11:38:44.015Z,16.00
2018-11-11T11:39:44.009Z,15.89
2018-11-11T11:40:43.991Z,15.89
2018-11-11T11:41:43.997Z,15.89
2018-11-11T11:42:43.968Z,15.94
2018-11-11T11:43:43.956Z,16.04
2018-11-11T11:44:43.952Z,16.01
2018-11-11T11:45:43.946Z,16.08
2018-11-11T11:46:43.937Z,16.20
2018-11-11T11:47:43.924Z,16.23
2018-11-11T11:48:43.901Z,16.23
2018-11-11T11:49:43.915Z,16.23
2018-11-11T11:50:43.878Z,16.12
2018-11-11T11:51:43.882Z,16.15
2018-11-11T11:52:43.892Z,16.11
2018-11-11T11:53:43.846Z,16.11
2018-11-11T11:54:43.834Z,16.11
2018-11-11T11:55:43.827Z,16.21
2018-11-11T11:56:43.823Z,16.27
2018-11-11T11:57:43.801Z,16.30
2018-11-11T11:58:43.788Z,16.31
2018-11-11T11:59:43.788Z,16.30
2018-11-11T12:00:43.767Z,16.35
2018-11-11T12:01:43.765Z,16.39
2018-11-11T12:02:43.745Z,16.41
2018-11-11T12:03:43.735Z,16.41
2018-11-11T12:04:43.721Z,16.34
2018-11-11T12:05:43.725Z,16.33
2018-11-11T12:06:43.967Z,16.38
2018-11-11T12:07:43.686Z,16.43
2018-11-11T12:08:43.872Z,16.39
2018-11-11T12:09:43.671Z,16.33
2018-11-11T12:10:43.658Z,16.38
2018-11-11T12:11:43.643Z,16.30
2018-11-11T12:12:43.644Z,16.43
2018-11-11T12:17:32.440Z,16.45
2018-11-11T12:18:16.631Z,16.45
2018-11-11T12:19:16.617Z,16.49
2018-11-11T12:20:16.612Z,16.48
2018-11-11T12:21:16.600Z,16.43
2018-11-11T12:22:16.594Z,16.50
2018-11-11T12:23:16.679Z,16.56
2018-11-11T12:24:16.561Z,16.48
2018-11-11T12:25:16.558Z,16.58
2018-11-11T12:26:16.543Z,16.58
2018-11-11T12:27:16.563Z,16.60
2018-11-11T12:28:16.522Z,16.52
2018-11-11T12:29:17.402Z,16.53
2018-11-11T12:30:16.504Z,16.53
2018-11-11T12:31:16.489Z,16.58
2018-11-11T12:32:16.474Z,16.53
2018-11-11T12:33:16.478Z,16.52
2018-11-11T12:36:00.410Z,16.75
2018-11-11T12:36:24.665Z,16.75
2018-11-11T12:37:24.682Z,16.67
2018-11-11T12:38:24.645Z,16.68
2018-11-11T12:39:24.696Z,16.64
2018-11-11T12:40:24.708Z,16.64
2018-11-11T12:41:24.609Z,16.63
2018-11-11T12:42:24.619Z,16.61
2018-11-11T12:43:24.606Z,16.58
2018-11-11T12:44:24.587Z,16.66
2018-11-11T12:45:24.572Z,16.70
2018-11-11T12:46:24.588Z,16.71
2018-11-11T12:47:24.553Z,16.82
2018-11-11T12:48:24.569Z,16.79
2018-11-11T12:49:24.545Z,16.91
2018-11-11T12:50:24.552Z,17.11
2018-11-11T12:51:24.518Z,17.38
2018-11-11T12:52:24.490Z,17.36
2018-11-11T12:53:24.517Z,17.31
2018-11-11T12:54:24.482Z,17.44
2018-11-11T12:55:24.528Z,17.54
2018-11-11T12:56:24.463Z,17.74
2018-11-11T12:57:24.441Z,17.72
2018-11-11T12:58:24.439Z,17.51
2018-11-11T12:59:24.414Z,17.48
2018-11-11T13:00:24.404Z,17.33
2018-11-11T13:01:24.393Z,17.33